Blue Bell, SD

11:53 AM MST on December 05, 2016 (GMT -0700)
| | Change Station

Elev -9999 ft 0.00 °N, 0.00 °E | Updated

Overcast
Overcast
°F
Feels Like °F
N
Wind Variable Wind from North
Gusts mph

Today
High -- | Low -- °F
--% Chance of Precip.
Yesterday
High -- | Low -- °F
Precip. -- in
Pressure 29.55 in
Visibility 8.0 miles
Clouds Few 2400 ft
Mostly Cloudy 3000 ft
Overcast 4900 ft
Dew Point Not available.
Humidity Not available.
Rainfall --
Snow Depth Not available.
7:12 AM 4:17 PM
Waxing Crescent, 34% visible
SPECI KCUT 051825Z AUTO 32010G19KT 290V350 8SM FEW024 BKN030 OVC049 M05/M12 A2955 RMK AO2 SNE25 P0000 T10501117
Pressure 29.55 in
Visibility 8.0 miles
Clouds Few 2400 ft
Mostly Cloudy 3000 ft
Overcast 4900 ft
Dew Point Not available.
Humidity Not available.
Rainfall --
Snow Depth Not available.
7:12 AM 4:17 PM
Waxing Crescent, 34% visible
SPECI KCUT 051825Z AUTO 32010G19KT 290V350 8SM FEW024 BKN030 OVC049 M05/M12 A2955 RMK AO2 SNE25 P0000 T10501117

10-Day Weather Forecast

Almanac

Astronomy

Dec. 05, 2016 Rise Set
Actual Time
Civil Twilight
Nautical Twilight
Astronomical Twilight
Moon
Length of Visible Light
Length of Day
Tomorrow will be .
, % of the Moon is Illuminated

Today's Extremes

State Highs State Lows

Community

WunderPhotos

Upload Photos

1,955,851 photos uploaded!

WunderBlog® & News

Nearby

Air Quality

  Air Quality AQ Index Pollutant
Not available.

Snow Depth

Station Depth Elevation

Earthquake Activity

City Distance Mag. Time & Date
Minimum magnitude displayed is 2.5.

Coastal Water Temperatures

Place Temperature

Stations

Nearby Weather Stations

Station Location Temp. Windchill Dew Point Humidity Wind Precip. Elev Updated Type
                   

Watches & Warnings

There are currently no watches in effect.